Time;durP1;ratioP1;P1;durP2;ratioP2;P2;SDS_P1;SDS_P2;PMS_P1;PMS_P2;Temp;Humidity;BMP_temperature;BMP_pressure;BME280_temperature;BME280_humidity;BME280_pressure;Samples;Min_cycle;Max_cycle;Signal;HPM_P1;HPM_P2
2021/12/12 00:00:36;;;;;;;;;26.50;18.50;;;;;14.80;49.00;98908.50;4844678;28;104006;-59
2021/12/12 00:03:14;;;;;;;;;21.50;19.75;;;;;14.77;48.64;98909.75;4842249;28;104674;-59
2021/12/12 00:05:44;;;;;;;;;23.00;19.50;;;;;14.77;48.79;98917.94;4843174;28;102979;-59
2021/12/12 00:08:12;;;;;;;;;21.50;16.75;;;;;14.73;48.88;98914.81;4853590;28;102475;-59
2021/12/12 00:10:41;;;;;;;;;18.00;16.50;;;;;14.71;48.82;98911.50;4834110;28;109737;-59
2021/12/12 00:13:14;;;;;;;;;19.25;17.00;;;;;14.71;48.38;98916.09;4829847;28;103978;-59
2021/12/12 00:15:41;;;;;;;;;18.00;16.00;;;;;14.69;48.95;98919.03;4824812;28;102827;-59
2021/12/12 00:18:08;;;;;;;;;14.50;13.75;;;;;14.66;48.78;98919.47;4838945;28;102887;-59
2021/12/12 00:20:36;;;;;;;;;15.50;15.50;;;;;14.65;48.75;98922.41;4836297;28;104762;-59
2021/12/12 00:23:03;;;;;;;;;23.75;19.00;;;;;14.64;48.99;98931.63;4826138;28;102443;-58
2021/12/12 00:25:34;;;;;;;;;17.25;15.25;;;;;14.61;48.48;98923.91;4826971;28;103566;-59
2021/12/12 00:28:01;;;;;;;;;18.25;16.00;;;;;14.59;48.76;98924.13;4840215;28;104435;-59
2021/12/12 00:30:28;;;;;;;;;17.25;14.75;;;;;14.58;48.93;98930.63;4824173;28;104187;-59
2021/12/12 00:32:55;;;;;;;;;17.25;14.25;;;;;14.56;48.92;98931.88;4836690;28;103919;-59
2021/12/12 00:35:23;;;;;;;;;15.00;15.00;;;;;14.55;48.30;98930.22;4824814;28;102515;-59
2021/12/12 00:38:02;;;;;;;;;17.50;16.25;;;;;14.51;48.56;98938.00;4840144;28;104325;-59
2021/12/12 00:40:37;;;;;;;;;20.75;16.50;;;;;14.50;48.80;98940.94;4838091;28;104385;-59
2021/12/12 00:43:07;;;;;;;;;18.25;16.25;;;;;14.48;48.29;98943.03;4846245;28;111396;-58
2021/12/12 00:45:38;;;;;;;;;16.50;15.25;;;;;14.46;48.90;98950.56;4837651;28;102481;-59
2021/12/12 00:48:05;;;;;;;;;20.75;17.75;;;;;14.45;48.76;98954.38;4834362;28;102660;-59
2021/12/12 00:50:37;;;;;;;;;18.00;14.00;;;;;14.46;48.27;98950.56;4839262;28;105684;-59
2021/12/12 00:53:05;;;;;;;;;18.25;15.50;;;;;14.44;48.24;98958.13;4832247;28;105949;-59
2021/12/12 00:55:37;;;;;;;;;13.25;11.25;;;;;14.43;48.32;98962.75;4843923;28;102558;-59
2021/12/12 00:58:05;;;;;;;;;15.25;14.50;;;;;14.41;48.68;98977.63;4841995;28;104724;-59
2021/12/12 01:00:37;;;;;;;;;25.50;19.75;;;;;14.40;48.12;98973.22;4837221;28;103456;-59
2021/12/12 01:03:05;;;;;;;;;19.00;15.00;;;;;14.39;48.37;98971.53;4812876;28;103060;-59
2021/12/12 01:05:32;;;;;;;;;17.00;16.00;;;;;14.37;48.40;98974.47;4813039;28;102555;-59
2021/12/12 01:07:59;;;;;;;;;18.00;14.00;;;;;14.36;48.55;98980.16;4814224;28;102538;-59
2021/12/12 01:10:36;;;;;;;;;16.75;15.00;;;;;14.35;48.57;98976.56;4849870;28;104107;-59
2021/12/12 01:13:04;;;;;;;;;19.50;16.50;;;;;14.32;49.06;98972.38;4832849;28;103665;-59
2021/12/12 01:15:38;;;;;;;;;15.00;14.00;;;;;14.32;48.58;98972.38;4819159;28;103542;-59
2021/12/12 01:18:09;;;;;;;;;15.75;14.00;;;;;14.29;49.26;98969.25;4851760;28;102496;-59
2021/12/12 01:20:40;;;;;;;;;15.50;13.50;;;;;14.28;48.82;98967.56;4839130;28;104077;-59
2021/12/12 01:23:14;;;;;;;;;16.75;16.00;;;;;14.26;48.25;98962.38;4841322;28;102459;-59
2021/12/12 01:25:44;;;;;;;;;16.75;14.75;;;;;14.24;48.63;98961.75;4811398;28;102735;-59
2021/12/12 01:28:13;;;;;;;;;13.50;11.75;;;;;14.22;48.35;98966.56;4836430;28;102563;-59
2021/12/12 01:30:40;;;;;;;;;18.00;15.00;;;;;14.20;48.96;98965.09;4842749;28;112226;-59
2021/12/12 01:33:09;;;;;;;;;18.50;15.25;;;;;14.19;48.91;98972.44;4829712;28;102601;-59
2021/12/12 01:35:37;;;;;;;;;25.00;16.25;;;;;14.16;48.41;98956.53;4824726;28;102400;-59
2021/12/12 01:40:53;;;;;;;;;16.25;14.00;;;;;14.14;48.83;98974.94;4827756;28;109039;-59
2021/12/12 01:43:27;;;;;;;;;15.50;14.50;;;;;14.15;48.76;98976.63;4829018;28;102680;-59
2021/12/12 01:46:07;;;;;;;;;15.75;13.00;;;;;14.12;48.81;98974.34;4822366;28;102943;-59
2021/12/12 01:48:46;;;;;;;;;15.75;13.00;;;;;14.13;49.07;98986.06;4846734;28;102591;-59
2021/12/12 01:51:13;;;;;;;;;18.00;14.00;;;;;14.11;48.47;98986.28;4839915;28;109396;-59
2021/12/12 01:53:43;;;;;;;;;17.25;13.50;;;;;14.10;48.68;98973.72;4820841;28;102560;-59
2021/12/12 01:56:20;;;;;;;;;17.00;14.25;;;;;14.09;49.06;98979.38;4824913;28;103606;-59
2021/12/12 01:58:49;;;;;;;;;14.25;13.00;;;;;14.08;48.91;98973.09;4839399;28;103169;-59
2021/12/12 02:01:20;;;;;;;;;13.75;13.00;;;;;14.07;48.88;98979.59;4831944;28;103836;-59
2021/12/12 02:03:49;;;;;;;;;20.50;14.75;;;;;14.06;48.42;98983.34;4803831;28;110558;-59
2021/12/12 02:06:19;;;;;;;;;15.50;13.00;;;;;14.05;48.62;98986.31;4813735;28;102550;-59
2021/12/12 02:08:47;;;;;;;;;14.50;12.25;;;;;14.03;48.98;98986.50;4795423;28;102719;-59
2021/12/12 02:11:17;;;;;;;;;12.00;12.00;;;;;14.02;48.20;98982.13;4790420;28;108932;-59
2021/12/12 02:13:47;;;;;;;;;16.50;15.25;;;;;14.00;48.36;98978.78;4846761;28;103434;-59
2021/12/12 02:16:14;;;;;;;;;16.00;13.00;;;;;13.99;48.35;98982.56;4820076;28;104160;-59
2021/12/12 02:18:46;;;;;;;;;15.00;12.75;;;;;13.98;48.06;98988.19;4834829;28;102603;-59
2021/12/12 02:21:43;;;;;;;;;19.75;18.25;;;;;13.97;48.46;98986.50;4834826;28;108705;-59
2021/12/12 02:35:05;;;;;;;;;14.25;13.00;;;;;13.97;48.31;98989.22;4839163;28;107485;-58
2021/12/12 02:35:37;;;;;;;;;19.75;14.25;;;;;13.90;48.38;99005.56;4831031;28;102778;-59
2021/12/12 02:38:04;;;;;;;;;16.50;14.75;;;;;13.90;48.87;99004.75;4827244;28;102542;-59
2021/12/12 02:40:43;;;;;;;;;15.25;13.25;;;;;13.87;48.60;99010.59;4845744;28;102742;-59
2021/12/12 02:43:12;;;;;;;;;14.25;14.00;;;;;13.85;48.73;99010.81;4830491;28;104234;-59
2021/12/12 02:45:39;;;;;;;;;11.00;10.00;;;;;13.84;48.72;99017.28;4813429;28;102611;-59
2021/12/12 02:48:09;;;;;;;;;14.50;12.00;;;;;13.83;48.43;99018.31;4820818;28;102503;-59
2021/12/12 02:50:42;;;;;;;;;12.25;10.75;;;;;13.82;48.59;99014.78;4831211;28;103116;-59
2021/12/12 02:53:21;;;;;;;;;14.75;12.00;;;;;13.82;48.27;99020.22;4826775;28;103645;-59
2021/12/12 02:55:54;;;;;;;;;13.75;13.00;;;;;13.82;49.11;99017.47;4819426;28;107955;-59
2021/12/12 02:58:21;;;;;;;;;17.00;14.75;;;;;13.80;48.29;99016.88;4840201;28;102796;-59
2021/12/12 03:00:57;;;;;;;;;16.00;14.00;;;;;13.80;49.01;99007.88;4830665;28;103460;-59
2021/12/12 03:03:27;;;;;;;;;14.00;13.25;;;;;13.80;48.54;99005.16;4815082;28;104029;-59
2021/12/12 03:05:54;;;;;;;;;18.00;14.00;;;;;13.77;48.89;99013.75;4837568;28;103222;-59
2021/12/12 03:08:21;;;;;;;;;15.75;14.00;;;;;13.77;48.73;99011.88;4830480;28;102494;-59
2021/12/12 03:10:49;;;;;;;;;15.50;13.00;;;;;13.76;48.16;99020.22;4836346;28;103307;-59
2021/12/12 03:13:17;;;;;;;;;0.00;0.00;;;;;13.73;48.12;99017.94;4840701;28;104083;-59
2021/12/12 03:15:44;;;;;;;;;18.50;14.00;;;;;13.77;49.06;99016.47;4812748;28;102539;-59
2021/12/12 03:18:19;;;;;;;;;14.50;13.25;;;;;13.79;48.78;99014.38;4845619;28;103384;-59
2021/12/12 03:20:50;;;;;;;;;19.25;15.00;;;;;13.81;48.17;99012.28;4842089;28;103226;-58
2021/12/12 03:23:39;;;;;;;;;15.75;14.75;;;;;13.83;48.44;99011.00;4836058;28;108768;-59
2021/12/12 03:26:08;;;;;;;;;18.75;14.25;;;;;13.87;48.06;99019.56;4825123;28;102696;-59
2021/12/12 03:28:37;;;;;;;;;18.75;15.75;;;;;13.90;48.59;99021.03;4842702;28;102752;-58
2021/12/12 03:31:10;;;;;;;;;14.75;14.00;;;;;13.91;48.24;99017.28;4835374;28;103993;-59
2021/12/12 03:33:37;;;;;;;;;23.25;15.75;;;;;13.94;48.19;99027.72;4837827;28;104086;-59
2021/12/12 03:36:05;;;;;;;;;14.75;14.25;;;;;13.97;47.98;99039.00;4854789;28;102524;-59
2021/12/12 03:38:33;;;;;;;;;17.25;14.25;;;;;14.00;47.68;99038.59;4829432;28;102626;-59
2021/12/12 03:41:07;;;;;;;;;20.75;15.50;;;;;14.01;47.44;99033.97;4834402;28;102853;-59
2021/12/12 03:43:35;;;;;;;;;14.50;13.25;;;;;14.02;47.56;99028.34;4838582;28;104409;-59
2021/12/12 03:46:05;;;;;;;;;18.50;16.25;;;;;14.02;48.15;99036.50;4824570;28;102443;-58
2021/12/12 03:48:32;;;;;;;;;18.75;14.25;;;;;14.01;48.24;99037.53;4802578;28;102746;-59
2021/12/12 03:51:01;;;;;;;;;19.50;15.50;;;;;14.01;47.51;99033.97;4834556;28;104195;-59
2021/12/12 03:53:28;;;;;;;;;10.75;9.75;;;;;14.02;47.43;99035.66;4835785;28;104145;-59
2021/12/12 03:55:56;;;;;;;;;16.00;11.75;;;;;14.01;47.87;99023.09;4829761;28;103447;-59
2021/12/12 03:58:23;;;;;;;;;14.25;12.25;;;;;14.01;47.28;99031.25;4829140;28;102414;-59
2021/12/12 04:00:58;;;;;;;;;20.00;14.75;;;;;14.01;48.17;99028.53;4840603;28;104937;-59
2021/12/12 04:03:25;;;;;;;;;16.75;13.00;;;;;14.00;47.86;99027.72;4831854;28;105335;-59
2021/12/12 04:05:58;;;;;;;;;16.25;14.75;;;;;13.99;47.61;99028.78;4831919;28;102596;-59
2021/12/12 04:08:26;;;;;;;;;18.00;14.75;;;;;13.96;48.15;99034.63;4829128;28;102760;-59
2021/12/12 04:10:53;;;;;;;;;17.75;13.75;;;;;13.96;47.46;99037.31;4842996;28;102807;-59
2021/12/12 04:13:21;;;;;;;;;19.00;13.50;;;;;13.95;47.61;99035.69;4831121;28;104047;-59
2021/12/12 04:15:52;;;;;;;;;14.00;13.25;;;;;13.92;48.13;99033.38;4838032;28;102594;-59
2021/12/12 04:18:26;;;;;;;;;19.00;15.00;;;;;13.91;48.09;99039.88;4830227;28;102652;-59
2021/12/12 04:20:53;;;;;;;;;15.25;12.25;;;;;13.91;47.63;99050.75;4843932;28;103337;-59
2021/12/12 04:23:22;;;;;;;;;16.50;14.00;;;;;13.91;47.80;99061.63;4840226;28;104039;-59
2021/12/12 04:25:50;;;;;;;;;14.25;12.75;;;;;13.88;47.87;99061.19;4840377;28;102403;-59
2021/12/12 04:28:17;;;;;;;;;17.25;14.50;;;;;13.86;47.72;99061.41;4845317;28;102742;-59
2021/12/12 04:30:44;;;;;;;;;13.25;10.00;;;;;13.84;47.82;99063.50;4848750;28;103467;-59
2021/12/12 04:33:11;;;;;;;;;13.50;12.50;;;;;13.82;48.03;99073.75;4836631;28;104308;-59
2021/12/12 04:35:38;;;;;;;;;13.50;12.25;;;;;13.79;47.79;99080.44;4834919;28;102599;-59
2021/12/12 04:38:05;;;;;;;;;17.75;12.50;;;;;13.80;48.35;99090.28;4846349;28;105715;-58
2021/12/12 04:40:34;;;;;;;;;16.25;12.25;;;;;13.80;48.03;99078.56;4840974;28;102648;-58
2021/12/12 04:43:02;;;;;;;;;14.75;14.00;;;;;13.81;48.15;99099.25;4829535;28;104181;-59
2021/12/12 04:45:44;;;;;;;;;13.50;13.25;;;;;13.80;47.70;99090.28;4834843;28;102642;-59
2021/12/12 04:51:41;;;;;;;;;15.00;15.00;;;;;13.77;47.80;99096.13;4822264;28;103047;-59
2021/12/12 04:54:36;;;;;;;;;13.50;12.25;;;;;13.74;48.27;99092.97;4832184;28;109049;-59
2021/12/12 04:57:11;;;;;;;;;12.00;12.00;;;;;13.75;48.30;99106.38;4842805;28;102695;-59
2021/12/12 05:00:03;;;;;;;;;13.50;11.00;;;;;13.74;48.38;99112.00;4834196;28;102929;-59
2021/12/12 05:02:38;;;;;;;;;15.00;14.25;;;;;13.73;47.92;99123.94;4832488;28;102734;-59
2021/12/12 05:05:30;;;;;;;;;15.50;12.75;;;;;13.72;48.49;99124.97;4843040;28;104082;-59
2021/12/12 05:08:04;;;;;;;;;17.50;14.00;;;;;13.72;47.52;99122.25;4820356;28;102581;-59
2021/12/12 05:10:37;;;;;;;;;15.00;13.75;;;;;13.70;47.68;99127.06;4850901;28;103838;-59
2021/12/12 05:13:11;;;;;;;;;13.75;13.00;;;;;13.68;47.48;99130.00;4838210;28;103174;-59
2021/12/12 05:15:41;;;;;;;;;15.75;13.75;;;;;13.68;48.61;99140.03;4849020;28;104142;-59
2021/12/12 05:18:13;;;;;;;;;16.25;12.00;;;;;13.67;48.54;99135.63;4815893;28;102549;-59
2021/12/12 05:20:45;;;;;;;;;18.25;13.75;;;;;13.63;48.02;99137.09;4827798;28;102625;-59
2021/12/12 05:23:14;;;;;;;;;15.50;13.25;;;;;13.59;48.46;99124.97;4813951;28;102503;-59
2021/12/12 05:25:49;;;;;;;;;17.75;14.00;;;;;13.59;48.04;99133.13;4819867;28;103810;-59
2021/12/12 05:28:20;;;;;;;;;17.75;15.00;;;;;13.58;47.77;99131.44;4822118;28;102839;-59
2021/12/12 05:30:47;;;;;;;;;13.25;12.75;;;;;13.58;48.16;99137.72;4808053;28;102668;-58
2021/12/12 05:33:15;;;;;;;;;14.00;13.00;;;;;13.60;47.97;99145.66;4822846;28;102694;-59
2021/12/12 05:35:42;;;;;;;;;14.50;13.00;;;;;13.61;47.63;99141.88;4810510;28;103542;-59
2021/12/12 05:38:09;;;;;;;;;11.00;11.00;;;;;13.60;48.32;99145.66;4817882;28;102924;-59
2021/12/12 05:40:37;;;;;;;;;17.75;14.00;;;;;13.58;47.92;99140.44;4805782;28;111497;-59
2021/12/12 05:43:05;;;;;;;;;15.00;13.75;;;;;13.57;48.67;99138.75;4826826;28;104189;-59
2021/12/12 05:45:33;;;;;;;;;17.00;15.75;;;;;13.57;48.63;99140.63;4819609;28;104055;-59
2021/12/12 05:48:00;;;;;;;;;11.50;11.50;;;;;13.56;48.68;99141.66;4818454;28;102537;-59
2021/12/12 05:50:27;;;;;;;;;15.00;14.50;;;;;13.55;48.58;99151.72;4826148;28;104609;-59
2021/12/12 05:52:54;;;;;;;;;20.00;13.50;;;;;13.53;48.29;99148.38;4810759;28;102973;-58
2021/12/12 05:55:24;;;;;;;;;15.50;13.00;;;;;13.52;48.48;99149.41;4811729;28;104053;-59
2021/12/12 05:57:55;;;;;;;;;12.00;8.75;;;;;13.50;48.20;99156.94;4825543;28;102998;-59
2021/12/12 06:00:34;;;;;;;;;17.25;14.00;;;;;13.50;48.30;99151.50;4826881;28;102202;-58
2021/12/12 06:03:01;;;;;;;;;16.25;12.50;;;;;13.49;48.79;99148.97;4819174;28;102596;-59
2021/12/12 06:05:29;;;;;;;;;14.00;12.75;;;;;13.48;47.98;99142.72;4816057;28;104366;-59
2021/12/12 06:07:56;;;;;;;;;12.50;10.50;;;;;13.48;48.80;99147.31;4794569;28;103091;-58
2021/12/12 06:10:23;;;;;;;;;14.00;12.00;;;;;13.48;48.50;99147.31;4806002;28;102531;-59
2021/12/12 06:12:50;;;;;;;;;16.25;13.50;;;;;13.46;48.02;99144.81;4821479;28;103018;-59
2021/12/12 06:15:18;;;;;;;;;17.00;12.00;;;;;13.45;48.00;99153.16;4826904;28;109134;-59
2021/12/12 06:17:47;;;;;;;;;14.00;11.25;;;;;13.44;48.70;99159.63;4831888;28;104224;-58
2021/12/12 06:20:14;;;;;;;;;15.50;13.25;;;;;13.42;48.53;99151.66;4816499;28;102575;-59
2021/12/12 06:22:41;;;;;;;;;12.25;11.50;;;;;13.41;48.28;99158.16;4842624;28;102504;-59
2021/12/12 06:25:09;;;;;;;;;13.25;11.00;;;;;13.39;48.12;99155.66;4848478;28;104648;-59
2021/12/12 06:27:36;;;;;;;;;12.75;12.00;;;;;13.40;48.44;99154.63;4838902;28;102605;-59
2021/12/12 06:30:07;;;;;;;;;15.25;13.50;;;;;13.40;47.68;99154.63;4830057;28;104259;-58
2021/12/12 06:32:34;;;;;;;;;11.75;10.50;;;;;13.39;48.09;99149.38;4835680;28;102355;-59
2021/12/12 06:35:03;;;;;;;;;13.00;12.75;;;;;13.38;47.94;99148.53;4814002;28;104708;-59
2021/12/12 06:37:30;;;;;;;;;12.00;12.00;;;;;13.37;48.08;99160.44;4825409;28;102525;-59
2021/12/12 06:39:57;;;;;;;;;15.75;14.25;;;;;13.37;47.73;99156.91;4835573;28;105929;-59
2021/12/12 06:42:24;;;;;;;;;13.75;12.00;;;;;13.36;48.44;99156.06;4843603;28;102738;-59
2021/12/12 06:44:51;;;;;;;;;15.75;12.00;;;;;13.36;47.83;99147.91;4828643;28;104057;-59
2021/12/12 06:47:18;;;;;;;;;14.50;11.50;;;;;13.35;48.05;99153.53;4845706;28;103561;-59
2021/12/12 06:49:45;;;;;;;;;11.75;10.75;;;;;13.34;48.13;99155.41;4857708;28;103232;-58
2021/12/12 06:52:13;;;;;;;;;14.50;12.50;;;;;13.34;48.59;99158.13;4841509;28;103809;-58
2021/12/12 06:54:40;;;;;;;;;12.00;11.75;;;;;13.32;48.78;99165.69;4828260;28;104204;-58
2021/12/12 06:57:09;;;;;;;;;15.50;13.25;;;;;13.31;48.30;99163.16;4823082;28;102824;-59
2021/12/12 06:59:37;;;;;;;;;18.00;15.25;;;;;13.30;47.86;99165.03;4840965;28;102523;-58
2021/12/12 07:02:07;;;;;;;;;12.50;11.50;;;;;13.29;48.84;99157.91;4845936;28;102942;-58
2021/12/12 07:04:35;;;;;;;;;17.25;14.00;;;;;13.28;48.08;99161.66;4840041;28;104824;-59
2021/12/12 07:07:03;;;;;;;;;13.75;12.75;;;;;13.28;48.18;99153.50;4835351;28;102257;-59
2021/12/12 07:09:30;;;;;;;;;13.50;11.50;;;;;13.31;48.26;99160.44;4847686;28;102124;-59
2021/12/12 07:12:00;;;;;;;;;15.00;12.00;;;;;13.28;48.50;99167.09;4838855;28;102798;-59
2021/12/12 07:14:27;;;;;;;;;14.75;12.75;;;;;13.28;48.57;99169.00;4831922;28;106850;-59
2021/12/12 07:16:54;;;;;;;;;17.00;14.75;;;;;13.28;48.48;99163.56;4835609;28;103833;-59
2021/12/12 07:19:22;;;;;;;;;15.25;12.00;;;;;13.27;48.83;99168.16;4844598;28;102646;-59
2021/12/12 07:21:49;;;;;;;;;15.75;14.00;;;;;13.27;48.83;99176.31;4833718;28;102605;-59
2021/12/12 07:24:17;;;;;;;;;15.25;11.75;;;;;13.27;48.17;99183.63;4827103;28;104643;-59
2021/12/12 07:26:44;;;;;;;;;14.00;13.00;;;;;13.27;49.11;99160.00;4826147;28;102245;-58
2021/12/12 07:29:11;;;;;;;;;18.50;16.75;;;;;13.31;49.84;99172.13;4812321;28;103797;-59
2021/12/12 07:31:39;;;;;;;;;20.25;17.75;;;;;13.31;49.45;99166.72;4823238;28;102765;-59
2021/12/12 07:34:08;;;;;;;;;21.75;15.50;;;;;13.31;49.44;99182.16;4841762;28;104565;-59
2021/12/12 07:36:37;;;;;;;;;21.00;17.00;;;;;13.31;49.69;99180.28;4832574;28;102580;-58
2021/12/12 07:39:07;;;;;;;;;18.50;17.50;;;;;13.32;49.28;99179.25;4840374;28;102435;-59
2021/12/12 07:41:34;;;;;;;;;20.00;17.75;;;;;13.32;49.53;99178.41;4851837;28;104364;-59
2021/12/12 07:44:07;;;;;;;;;15.00;14.75;;;;;13.31;48.26;99183.00;4833470;28;104186;-59
2021/12/12 07:46:39;;;;;;;;;20.50;18.00;;;;;13.30;48.77;99181.31;4819196;28;102315;-59
2021/12/12 07:49:06;;;;;;;;;16.25;14.00;;;;;13.31;48.58;99185.72;4842054;28;102612;-59
2021/12/12 07:51:33;;;;;;;;;19.50;14.75;;;;;13.30;48.21;99194.91;4841695;28;104370;-59
2021/12/12 07:54:01;;;;;;;;;19.00;17.75;;;;;13.28;48.93;99193.44;4836679;28;106351;-58
2021/12/12 07:56:30;;;;;;;;;19.00;15.25;;;;;13.27;48.83;99195.31;4831055;28;102749;-59
2021/12/12 07:58:58;;;;;;;;;16.75;14.50;;;;;13.26;48.22;99196.34;4840322;28;102589;-59
2021/12/12 08:01:25;;;;;;;;;21.00;18.00;;;;;13.26;48.21;99192.81;4845343;28;104210;-59
2021/12/12 08:03:57;;;;;;;;;20.25;17.75;;;;;13.24;49.35;99206.56;4822923;28;104217;-59
2021/12/12 08:06:25;;;;;;;;;18.25;14.50;;;;;13.24;48.83;99195.72;4830936;28;105843;-59
2021/12/12 08:08:52;;;;;;;;;22.00;18.75;;;;;13.24;49.35;99198.41;4848302;28;102577;-59
2021/12/12 08:11:24;;;;;;;;;20.00;16.50;;;;;13.24;49.20;99198.41;4837943;28;102601;-59
2021/12/12 08:13:51;;;;;;;;;14.50;14.00;;;;;13.24;48.21;99206.56;4834579;28;109879;-59
2021/12/12 08:16:19;;;;;;;;;14.00;12.75;;;;;13.24;48.27;99201.13;4825198;28;103510;-59
2021/12/12 08:18:46;;;;;;;;;18.75;17.75;;;;;13.24;48.42;99205.72;4838555;28;103484;-59
2021/12/12 08:21:16;;;;;;;;;20.50;15.75;;;;;13.25;47.92;99196.53;4816876;28;104507;-59
2021/12/12 08:23:43;;;;;;;;;21.00;16.75;;;;;13.23;48.82;99191.34;4807293;28;104352;-59
2021/12/12 08:26:10;;;;;;;;;16.75;12.75;;;;;13.23;49.14;99191.34;4815983;28;102592;-58
2021/12/12 08:28:37;;;;;;;;;14.00;12.00;;;;;13.24;48.52;99198.41;4826170;28;102713;-58
2021/12/12 08:31:05;;;;;;;;;18.50;16.25;;;;;13.25;48.99;99193.84;4835970;28;102683;-59
2021/12/12 08:33:32;;;;;;;;;17.75;13.00;;;;;13.26;48.53;99204.50;4823634;28;105915;-59
2021/12/12 08:36:01;;;;;;;;;17.00;15.00;;;;;13.25;49.21;99202.81;4804073;28;103159;-59
2021/12/12 08:38:28;;;;;;;;;17.25;14.25;;;;;13.26;49.19;99196.34;4836416;28;102410;-59
2021/12/12 08:40:59;;;;;;;;;17.50;16.75;;;;;13.25;48.66;99200.09;4825552;28;103972;-59
2021/12/12 08:43:26;;;;;;;;;18.75;16.50;;;;;13.25;48.59;99200.09;4838277;28;103821;-59
2021/12/12 08:45:56;;;;;;;;;18.75;16.50;;;;;13.25;48.59;99200.09;4844341;28;102606;-59
2021/12/12 08:48:24;;;;;;;;;18.50;13.75;;;;;13.24;49.08;99195.72;4844022;28;102271;-59
2021/12/12 08:50:53;;;;;;;;;17.00;16.50;;;;;13.26;48.64;99193.63;4849191;28;102643;-59
2021/12/12 08:53:21;;;;;;;;;17.00;13.00;;;;;13.33;50.08;99193.63;4843983;28;110614;-59
2021/12/12 08:55:49;;;;;;;;;17.50;15.25;;;;;13.43;51.44;99190.53;4819479;28;102705;-58
2021/12/12 08:58:19;;;;;;;;;18.00;17.25;;;;;13.53;52.30;99202.69;4840170;28;102523;-58
2021/12/12 09:00:57;;;;;;;;;20.00;18.50;;;;;13.63;53.55;99186.00;4845983;28;102629;-59
2021/12/12 09:03:30;;;;;;;;;21.75;18.50;;;;;13.69;52.77;99196.03;4825535;28;108921;-59
2021/12/12 09:05:57;;;;;;;;;25.25;20.00;;;;;13.76;53.06;99192.31;4859443;28;103558;-59
2021/12/12 09:08:50;;;;;;;;;22.00;18.50;;;;;13.85;53.14;99195.66;4829422;28;102659;-59
2021/12/12 09:11:25;;;;;;;;;20.00;19.50;;;;;13.90;52.03;99193.16;4838596;28;102588;-59
2021/12/12 09:14:07;;;;;;;;;14.75;13.00;;;;;13.99;52.42;99200.06;4817529;28;110600;-59
2021/12/12 09:16:48;;;;;;;;;25.50;20.00;;;;;14.06;52.96;99190.00;4820762;28;102468;-59
2021/12/12 09:19:25;;;;;;;;;18.50;15.75;;;;;14.13;52.64;99190.03;4802947;28;104173;-59
2021/12/12 09:22:00;;;;;;;;;19.25;14.00;;;;;14.19;52.52;99190.00;4796931;29;102327;-59
2021/12/12 09:24:31;;;;;;;;;19.25;17.00;;;;;14.26;51.92;99196.31;4791904;28;109108;-60
2021/12/12 09:27:01;;;;;;;;;21.75;20.00;;;;;14.31;52.46;99203.84;4793669;29;102534;-59
2021/12/12 09:29:50;;;;;;;;;19.75;16.75;;;;;14.37;51.48;99202.16;4801683;28;103285;-59
2021/12/12 09:32:21;;;;;;;;;23.50;21.00;;;;;14.41;51.89;99198.81;4795433;28;108864;-59
2021/12/12 09:34:53;;;;;;;;;19.25;18.00;;;;;14.47;51.55;99208.84;4807742;28;105065;-59
2021/12/12 09:37:30;;;;;;;;;19.75;15.25;;;;;14.49;51.29;99195.91;4806606;28;102525;-59
2021/12/12 09:40:10;;;;;;;;;19.00;18.50;;;;;14.55;51.13;99188.75;4784230;29;102369;-59
2021/12/12 09:42:50;;;;;;;;;19.50;15.75;;;;;14.60;51.03;99188.94;4790798;28;102580;-59
2021/12/12 09:45:48;;;;;;;;;21.00;18.75;;;;;14.64;50.94;99182.88;4796068;29;104043;-59
2021/12/12 09:51:37;;;;;;;;;19.50;17.50;;;;;14.73;50.67;99191.63;4794031;28;102608;-59
2021/12/12 09:54:15;;;;;;;;;20.25;18.50;;;;;14.77;50.67;99192.88;4819615;28;102204;-59
2021/12/12 09:57:10;;;;;;;;;21.00;15.50;;;;;14.82;50.58;99190.34;4790988;29;104124;-59
2021/12/12 10:00:04;;;;;;;;;15.75;15.50;;;;;14.87;50.33;99196.00;4801314;28;104235;-59
2021/12/12 10:03:02;;;;;;;;;19.25;17.00;;;;;14.92;50.48;99185.31;4784505;29;102161;-59
2021/12/12 10:05:47;;;;;;;;;23.25;15.75;;;;;14.95;50.23;99190.31;4794716;28;102675;-59
2021/12/12 10:08:28;;;;;;;;;19.00;14.25;;;;;14.98;50.27;99184.47;4801537;29;104011;-59
2021/12/12 10:11:00;;;;;;;;;22.50;19.25;;;;;15.01;50.20;99186.75;4807098;28;102305;-59
2021/12/12 10:13:42;;;;;;;;;17.50;15.50;;;;;15.04;50.05;99182.78;4795199;29;102650;-59
2021/12/12 10:16:38;;;;;;;;;18.25;15.25;;;;;15.06;50.05;99195.09;4793103;29;102724;-59
2021/12/12 10:19:17;;;;;;;;;19.00;18.25;;;;;15.10;50.11;99190.91;4829686;28;108627;-59
2021/12/12 10:21:52;;;;;;;;;18.00;15.50;;;;;15.13;49.98;99185.00;4837534;28;102440;-59
2021/12/12 10:24:29;;;;;;;;;17.25;15.25;;;;;15.15;49.86;99182.91;4826833;28;102658;-59
2021/12/12 10:27:24;;;;;;;;;21.50;16.00;;;;;15.19;49.87;99196.94;4843587;28;102562;-59
2021/12/12 10:30:14;;;;;;;;;18.00;17.00;;;;;15.23;49.89;99186.44;4834420;28;108839;-58
2021/12/12 10:32:53;;;;;;;;;17.75;15.00;;;;;15.26;49.45;99191.47;4834781;28;102731;-59
2021/12/12 10:35:25;;;;;;;;;18.25;16.25;;;;;15.28;49.51;99184.75;4841389;28;107043;-58
2021/12/12 10:37:54;;;;;;;;;22.00;16.00;;;;;15.29;49.31;99180.13;4821307;28;103844;-58
2021/12/12 10:40:45;;;;;;;;;18.00;17.00;;;;;15.33;49.43;99184.09;4838600;28;105692;-59
2021/12/12 10:43:13;;;;;;;;;17.75;17.75;;;;;15.36;49.23;99176.31;4841148;28;103630;-59
2021/12/12 10:45:44;;;;;;;;;18.75;16.50;;;;;15.39;49.20;99181.34;4825195;28;102941;-59
2021/12/12 10:48:16;;;;;;;;;16.00;14.00;;;;;15.41;49.19;99172.94;4815290;28;102612;-59
2021/12/12 10:51:01;;;;;;;;;17.00;14.75;;;;;15.44;48.83;99177.97;4838046;28;104077;-59
2021/12/12 10:53:31;;;;;;;;;16.75;15.75;;;;;15.46;49.19;99168.50;4819193;28;103792;-59
2021/12/12 10:56:21;;;;;;;;;4.75;2.75;;;;;15.47;49.18;99172.91;4834707;28;102818;-59
2021/12/12 10:58:53;;;;;;;;;20.25;17.00;;;;;15.50;48.76;99174.34;4849126;28;102487;-59
2021/12/12 11:01:36;;;;;;;;;16.00;14.00;;;;;15.52;48.59;99164.09;4835445;28;104024;-59
2021/12/12 11:04:23;;;;;;;;;16.75;14.25;;;;;15.55;49.29;99174.56;4820233;28;102643;-59
2021/12/12 11:06:58;;;;;;;;;18.75;15.75;;;;;15.56;48.71;99166.19;4855624;28;103193;-59
2021/12/12 11:09:38;;;;;;;;;17.00;15.00;;;;;15.58;48.62;99163.22;4836379;28;102694;-59
2021/12/12 11:12:12;;;;;;;;;18.25;16.00;;;;;15.60;49.00;99167.41;4832363;28;109099;-59
2021/12/12 11:15:03;;;;;;;;;14.00;13.75;;;;;15.61;48.34;99160.06;4825689;28;104963;-59
2021/12/12 11:17:43;;;;;;;;;17.50;16.25;;;;;15.63;48.75;99163.38;4840456;28;102749;-59
2021/12/12 11:20:17;;;;;;;;;17.75;15.50;;;;;15.65;48.14;99164.03;4818937;28;103389;-59
2021/12/12 11:23:12;;;;;;;;;19.50;17.00;;;;;15.67;48.71;99161.09;4832087;28;103989;-59
2021/12/12 11:25:46;;;;;;;;;17.75;15.75;;;;;15.69;48.50;99167.97;4820368;28;107269;-59
2021/12/12 11:28:19;;;;;;;;;16.25;14.25;;;;;15.72;48.54;99153.06;4824891;28;102208;-59
2021/12/12 11:30:59;;;;;;;;;19.00;16.75;;;;;15.74;48.44;99167.31;4847913;28;102609;-59
2021/12/12 11:33:26;;;;;;;;;15.25;14.50;;;;;15.75;48.32;99158.94;4838066;28;109398;-59
2021/12/12 11:35:55;;;;;;;;;14.25;14.00;;;;;15.77;48.32;99156.78;4831854;28;102642;-59
2021/12/12 11:38:24;;;;;;;;;19.00;16.00;;;;;15.78;48.14;99158.47;4822122;28;102719;-59
2021/12/12 11:41:05;;;;;;;;;17.25;17.25;;;;;15.80;48.02;99156.38;4848150;28;102493;-59
2021/12/12 11:43:39;;;;;;;;;19.50;17.00;;;;;15.83;48.01;99153.19;4835320;28;109150;-59
2021/12/12 11:46:34;;;;;;;;;16.25;15.25;;;;;15.85;48.02;99161.97;4837919;28;102528;-59
2021/12/12 11:49:16;;;;;;;;;16.25;14.75;;;;;15.86;47.86;99152.75;4835339;28;102448;-59